createdAt,value
2023-04-09T00:02:11.398Z,101173.78
2023-04-09T00:04:39.741Z,101176.09
2023-04-09T00:07:08.122Z,101176.78
2023-04-09T00:09:36.742Z,101184.28
2023-04-09T00:12:05.366Z,101175.03
2023-04-09T00:14:35.044Z,101171.28
2023-04-09T00:17:03.375Z,101184.84
2023-04-09T00:19:31.646Z,101180.53
2023-04-09T00:22:00.007Z,101171.88
2023-04-09T00:24:28.384Z,101169.94
2023-04-09T00:26:56.898Z,101166.88
2023-04-09T00:29:25.365Z,101156.66
2023-04-09T00:31:55.254Z,101171.56
2023-04-09T00:34:23.673Z,101169.75
2023-04-09T00:36:52.023Z,101168.84
2023-04-09T00:39:20.455Z,101161.50
2023-04-09T00:41:49.302Z,101157.78
2023-04-09T00:44:17.652Z,101164.41
2023-04-09T00:46:46.159Z,101162.47
2023-04-09T00:49:16.179Z,101151.44
2023-04-09T00:51:47.136Z,101156.41
2023-04-09T00:54:16.144Z,101149.50
2023-04-09T00:56:45.287Z,101141.53
2023-04-09T00:59:13.667Z,101151.06
2023-04-09T01:01:42.094Z,101140.16
2023-04-09T01:04:10.896Z,101158.06
2023-04-09T01:06:49.507Z,101154.47
2023-04-09T01:09:26.105Z,101150.66
2023-04-09T01:12:06.545Z,101079.19
2023-04-09T01:14:41.860Z,101152.13
2023-04-09T01:17:20.475Z,101159.72
2023-04-09T01:20:00.298Z,101164.97
2023-04-09T01:22:48.576Z,101158.78
2023-04-09T01:25:32.167Z,101149.63
2023-04-09T01:28:19.924Z,101155.31
2023-04-09T01:30:51.524Z,101157.13
2023-04-09T01:33:21.705Z,101161.69
2023-04-09T01:35:51.534Z,101157.88
2023-04-09T01:38:22.204Z,101161.44
2023-04-09T01:40:51.860Z,101160.63
2023-04-09T01:43:22.468Z,101162.00
2023-04-09T01:45:52.006Z,101126.56
2023-04-09T01:48:21.008Z,101164.75
2023-04-09T01:50:50.939Z,101163.72
2023-04-09T01:53:19.631Z,101129.59
2023-04-09T01:55:48.050Z,101151.13
2023-04-09T01:58:16.633Z,101151.97
2023-04-09T02:00:49.966Z,101159.84
2023-04-09T02:03:23.734Z,101168.81
2023-04-09T02:06:09.223Z,101150.19
2023-04-09T02:08:39.080Z,101172.38
2023-04-09T02:11:11.368Z,101172.69
2023-04-09T02:13:42.732Z,101160.09
2023-04-09T02:16:14.783Z,101167.72
2023-04-09T02:18:43.784Z,101170.34
2023-04-09T02:21:13.768Z,101130.03
2023-04-09T02:23:42.355Z,101157.47
2023-04-09T02:26:10.823Z,101159.84
2023-04-09T02:28:39.255Z,101173.53
2023-04-09T02:31:07.738Z,101169.38
2023-04-09T02:33:37.480Z,101168.69
2023-04-09T02:36:06.819Z,101175.16
2023-04-09T02:38:35.727Z,101110.56
2023-04-09T02:41:04.209Z,101165.91
2023-04-09T02:43:32.591Z,101152.81
2023-04-09T02:46:01.043Z,101166.19
2023-04-09T02:48:29.424Z,101156.78
2023-04-09T02:50:59.804Z,101156.94
2023-04-09T02:53:28.260Z,101160.94
2023-04-09T02:55:56.620Z,101158.63
2023-04-09T02:58:24.979Z,101157.34
2023-04-09T03:00:53.388Z,101161.91
2023-04-09T03:03:21.976Z,101152.41
2023-04-09T03:05:50.486Z,101152.41
2023-04-09T03:08:20.507Z,101159.56
2023-04-09T03:10:49.009Z,101162.59
2023-04-09T03:13:17.451Z,101148.94
2023-04-09T03:15:45.959Z,101148.94
2023-04-09T03:18:14.385Z,101147.13
2023-04-09T03:20:43.936Z,101066.84
2023-04-09T03:23:14.446Z,101145.81
2023-04-09T03:25:48.680Z,101136.97
2023-04-09T03:28:18.859Z,101142.47
2023-04-09T03:30:53.972Z,101140.03
2023-04-09T03:33:23.682Z,101133.94
2023-04-09T03:35:55.765Z,101131.59
2023-04-09T03:38:47.153Z,101136.88
2023-04-09T03:41:28.359Z,101133.97
2023-04-09T03:43:59.108Z,101132.66
2023-04-09T03:46:32.601Z,101117.13
2023-04-09T03:49:02.524Z,101145.44
2023-04-09T03:51:44.574Z,101136.63
2023-04-09T03:54:13.703Z,101045.31
2023-04-09T03:56:44.372Z,101100.75
2023-04-09T03:59:15.144Z,101137.22
2023-04-09T04:01:47.189Z,101142.59
2023-04-09T04:04:16.437Z,101139.81
2023-04-09T04:06:49.240Z,101134.72
2023-04-09T04:09:46.726Z,101134.72
2023-04-09T04:12:19.813Z,101135.81
2023-04-09T04:15:09.981Z,101121.31
2023-04-09T04:17:43.987Z,101133.19
2023-04-09T04:20:24.348Z,101129.88
2023-04-09T04:23:02.172Z,101142.84
2023-04-09T04:25:31.394Z,101145.34
2023-04-09T04:28:01.219Z,101110.25
2023-04-09T04:30:38.243Z,101145.19
2023-04-09T04:33:09.797Z,101141.34
2023-04-09T04:35:52.499Z,101146.59
2023-04-09T04:38:50.290Z,101150.41
2023-04-09T04:41:33.160Z,101144.50
2023-04-09T04:44:29.073Z,101147.38
2023-04-09T04:47:06.709Z,101146.84
2023-04-09T04:49:35.661Z,101142.56
2023-04-09T04:52:07.534Z,101159.94
2023-04-09T04:54:36.527Z,101157.03
2023-04-09T04:57:05.110Z,101159.50
2023-04-09T04:59:42.016Z,101125.78
2023-04-09T05:02:15.866Z,101161.03
2023-04-09T05:05:15.472Z,101139.34
2023-04-09T05:07:50.467Z,101126.91
2023-04-09T05:10:19.058Z,101164.34
2023-04-09T05:12:47.995Z,101141.00
2023-04-09T05:15:25.604Z,101161.59
2023-04-09T05:17:54.327Z,101143.25
2023-04-09T05:20:23.286Z,101160.91
2023-04-09T05:23:04.478Z,101144.75
2023-04-09T05:25:38.122Z,101168.53
2023-04-09T05:28:07.795Z,101171.56
2023-04-09T05:30:38.775Z,101164.22
2023-04-09T05:33:07.455Z,101164.41
2023-04-09T05:35:40.275Z,101167.72
2023-04-09T05:38:08.792Z,101168.66
2023-04-09T05:40:37.248Z,101144.25
2023-04-09T05:43:11.541Z,101164.00
2023-04-09T05:45:44.416Z,101137.91
2023-04-09T05:48:12.892Z,101177.09
2023-04-09T05:50:54.126Z,101181.25
2023-04-09T05:53:25.947Z,101184.13
2023-04-09T05:55:54.340Z,101184.28
2023-04-09T05:58:27.388Z,101185.09
2023-04-09T06:01:00.134Z,101180.81
2023-04-09T06:03:28.912Z,101177.81
2023-04-09T06:05:57.405Z,101174.47
2023-04-09T06:08:25.856Z,101183.44
2023-04-09T06:10:54.239Z,101172.13
2023-04-09T06:13:22.640Z,101176.69
2023-04-09T06:15:51.203Z,101152.66
2023-04-09T06:18:20.928Z,101157.78
2023-04-09T06:20:49.224Z,101181.94
2023-04-09T06:23:19.644Z,101175.72
2023-04-09T06:25:47.961Z,101169.75
2023-04-09T06:28:16.456Z,101184.28
2023-04-09T06:30:45.032Z,101173.91
2023-04-09T06:33:13.430Z,101171.56
2023-04-09T06:35:43.754Z,101174.72
2023-04-09T06:38:12.074Z,101181.22
2023-04-09T06:40:40.580Z,101187.28
2023-04-09T06:43:09.640Z,101119.78
2023-04-09T06:45:44.004Z,101186.25
2023-04-09T06:48:12.854Z,101192.06
2023-04-09T06:50:42.576Z,101188.44
2023-04-09T06:53:10.993Z,101187.44
2023-04-09T06:55:39.569Z,101187.72
2023-04-09T06:58:07.934Z,101177.63
2023-04-09T07:00:36.287Z,101190.13
2023-04-09T07:03:05.622Z,101187.69
2023-04-09T07:05:34.152Z,101175.66
2023-04-09T07:08:04.250Z,101189.69
2023-04-09T07:10:32.577Z,101188.81
2023-04-09T07:13:01.094Z,101184.69
2023-04-09T07:15:29.386Z,101192.63
2023-04-09T07:17:57.990Z,101191.06
2023-04-09T07:20:26.349Z,101162.16
2023-04-09T07:22:54.695Z,101185.81
2023-04-09T07:25:24.477Z,101194.19
2023-04-09T07:27:53.191Z,101188.06
2023-04-09T07:30:22.109Z,101188.91
2023-04-09T07:32:51.024Z,101187.59
2023-04-09T07:35:19.662Z,101192.50
2023-04-09T07:37:48.017Z,101199.72
2023-04-09T07:40:16.525Z,101190.78
2023-04-09T07:42:46.263Z,101194.69
2023-04-09T07:45:14.611Z,101189.91
2023-04-09T07:47:42.960Z,101190.84
2023-04-09T07:50:12.403Z,101199.41
2023-04-09T07:52:40.889Z,101198.94
2023-04-09T07:55:10.084Z,101206.41
2023-04-09T07:57:38.529Z,101209.91
2023-04-09T08:00:10.518Z,101205.00
2023-04-09T08:02:42.516Z,101214.34
2023-04-09T08:05:11.618Z,101206.31
2023-04-09T08:07:40.092Z,101211.69
2023-04-09T08:10:14.962Z,101217.97
2023-04-09T08:12:43.496Z,101218.22
2023-04-09T08:15:13.513Z,101210.72
2023-04-09T08:17:42.037Z,101215.84
2023-04-09T08:20:12.311Z,101222.84
2023-04-09T08:22:42.270Z,101223.22
2023-04-09T08:25:10.701Z,101216.59
2023-04-09T08:27:39.862Z,101223.25
2023-04-09T08:30:10.234Z,101222.16
2023-04-09T08:32:40.090Z,101217.59
2023-04-09T08:35:10.335Z,101229.78
2023-04-09T08:37:38.698Z,101224.13
2023-04-09T08:40:10.042Z,101225.22
2023-04-09T08:42:41.315Z,101230.03
2023-04-09T08:45:11.758Z,101219.44
2023-04-09T08:47:43.361Z,101226.34
2023-04-09T08:50:12.186Z,101205.50
2023-04-09T08:52:41.728Z,101225.13
2023-04-09T08:55:13.204Z,101232.47
2023-04-09T08:57:42.051Z,101224.50
2023-04-09T09:00:11.502Z,101228.69
2023-04-09T09:03:02.986Z,101212.66
2023-04-09T09:05:38.854Z,101218.78
2023-04-09T09:08:08.816Z,101223.25
2023-04-09T09:10:42.280Z,101224.56
2023-04-09T09:13:23.215Z,101219.50
2023-04-09T09:15:55.115Z,101217.25
2023-04-09T09:18:40.494Z,101223.69
2023-04-09T09:21:12.951Z,101220.22
2023-04-09T09:23:42.434Z,101211.66
2023-04-09T09:26:16.382Z,101218.03
2023-04-09T09:28:45.468Z,101216.50
2023-04-09T09:31:14.808Z,101217.72
2023-04-09T09:33:45.154Z,101226.91
2023-04-09T09:36:13.711Z,101223.66
2023-04-09T09:38:54.878Z,101215.78
2023-04-09T09:41:25.052Z,101228.09
2023-04-09T09:43:53.704Z,101223.72
2023-04-09T09:46:23.337Z,101227.84
2023-04-09T09:48:53.509Z,101220.94
2023-04-09T09:51:28.827Z,101214.91
2023-04-09T09:53:58.489Z,101181.31
2023-04-09T09:56:33.594Z,101203.97
2023-04-09T09:59:08.900Z,101222.41
2023-04-09T10:01:38.513Z,101216.63
2023-04-09T10:04:13.603Z,101206.94
2023-04-09T10:06:46.196Z,101212.69
2023-04-09T10:09:14.923Z,101198.88
2023-04-09T10:11:45.630Z,101206.75
2023-04-09T10:14:15.103Z,101199.25
2023-04-09T10:16:44.112Z,101191.53
2023-04-09T10:19:15.261Z,101194.63
2023-04-09T10:21:49.665Z,101183.59
2023-04-09T10:24:18.618Z,101187.38
2023-04-09T10:26:47.098Z,101192.47
2023-04-09T10:29:17.162Z,101190.09
2023-04-09T10:31:56.147Z,101177.19
2023-04-09T10:34:29.365Z,101188.19
2023-04-09T10:36:59.778Z,101183.66
2023-04-09T10:39:29.956Z,101177.72
2023-04-09T10:41:59.448Z,101185.31
2023-04-09T10:44:31.868Z,101180.19
2023-04-09T10:47:00.419Z,101176.41
2023-04-09T10:49:38.100Z,101169.59
2023-04-09T10:52:11.935Z,101170.56
2023-04-09T10:54:48.295Z,101171.50
2023-04-09T10:57:20.770Z,101163.69
2023-04-09T10:59:51.599Z,101165.47
2023-04-09T11:03:01.785Z,101167.84
2023-04-09T11:05:35.240Z,101160.97
2023-04-09T11:08:09.403Z,101177.63
2023-04-09T11:10:38.674Z,101158.81
2023-04-09T11:13:07.243Z,101166.41
2023-04-09T11:15:37.822Z,101159.94
2023-04-09T11:18:07.031Z,101174.47
2023-04-09T11:20:37.399Z,101157.69
2023-04-09T11:23:06.412Z,101151.78
2023-04-09T11:25:36.173Z,101166.22
2023-04-09T11:28:06.122Z,101164.41
2023-04-09T11:30:35.734Z,101161.47
2023-04-09T11:33:04.436Z,101154.13
2023-04-09T11:35:37.691Z,101152.66
2023-04-09T11:38:10.413Z,101142.53
2023-04-09T11:40:47.818Z,101150.88
2023-04-09T11:43:17.045Z,101145.16
2023-04-09T11:45:48.922Z,101152.25
2023-04-09T11:48:19.202Z,101152.75
2023-04-09T11:50:49.259Z,101147.09
2023-04-09T11:53:19.693Z,101108.28
2023-04-09T11:55:51.525Z,101153.59
2023-04-09T11:58:23.800Z,101149.75
2023-04-09T12:00:55.621Z,101149.81
2023-04-09T12:03:32.426Z,101157.59
2023-04-09T12:06:04.275Z,101151.38
2023-04-09T12:08:34.661Z,101143.56
2023-04-09T12:11:11.440Z,101131.44
2023-04-09T12:13:43.456Z,101145.63
2023-04-09T12:16:12.859Z,101138.50
2023-04-09T12:18:41.690Z,101142.91
2023-04-09T12:21:11.525Z,101130.75
2023-04-09T12:23:39.957Z,101131.22
2023-04-09T12:26:08.442Z,101149.66
2023-04-09T12:28:37.026Z,101131.06
2023-04-09T12:31:06.018Z,101137.25
2023-04-09T12:33:34.543Z,101138.66
2023-04-09T12:36:03.010Z,101132.84
2023-04-09T12:38:32.858Z,101132.44
2023-04-09T12:41:01.387Z,101119.88
2023-04-09T12:43:29.804Z,101120.66
2023-04-09T12:45:58.255Z,101126.84
2023-04-09T12:48:26.835Z,101114.88
2023-04-09T12:50:55.233Z,101114.81
2023-04-09T12:53:23.728Z,101108.31
2023-04-09T12:55:53.451Z,101114.19
2023-04-09T12:58:21.814Z,101104.19
2023-04-09T13:00:50.120Z,101094.78
2023-04-09T13:03:18.689Z,101085.16
2023-04-09T13:05:47.316Z,101090.53
2023-04-09T13:08:16.260Z,101086.06
2023-04-09T13:10:45.146Z,101091.50
2023-04-09T13:13:14.969Z,101078.53
2023-04-09T13:15:45.013Z,101083.84
2023-04-09T13:18:14.511Z,101087.69
2023-04-09T13:20:43.023Z,101084.22
2023-04-09T13:23:11.677Z,101069.88
2023-04-09T13:25:40.062Z,101083.69
2023-04-09T13:28:09.134Z,101088.41
2023-04-09T13:30:39.064Z,101077.50
2023-04-09T13:33:07.494Z,101075.59
2023-04-09T13:35:35.927Z,101063.63
2023-04-09T13:38:04.268Z,101064.41
2023-04-09T13:40:32.729Z,101058.72
2023-04-09T13:43:01.136Z,101062.47
2023-04-09T13:45:29.619Z,101058.53
2023-04-09T13:48:00.682Z,101050.19
2023-04-09T13:50:29.144Z,101053.13
2023-04-09T13:52:57.461Z,101037.88
2023-04-09T13:57:54.165Z,101038.50
2023-04-09T14:00:22.585Z,101035.09
2023-04-09T14:02:51.183Z,101034.66
2023-04-09T14:05:21.193Z,101009.06
2023-04-09T14:07:49.684Z,101032.19
2023-04-09T14:10:18.142Z,101029.22
2023-04-09T14:12:46.573Z,101035.16
2023-04-09T14:15:15.747Z,101032.25
2023-04-09T14:17:45.385Z,101019.31
2023-04-09T14:20:14.164Z,101025.53
2023-04-09T14:22:49.070Z,101034.03
2023-04-09T14:25:17.675Z,101034.03
2023-04-09T14:27:46.352Z,101031.38
2023-04-09T14:30:15.106Z,101035.56
2023-04-09T14:32:43.551Z,101036.56
2023-04-09T14:35:11.909Z,101028.38
2023-04-09T14:37:41.034Z,101018.88
2023-04-09T14:40:11.795Z,101032.56
2023-04-09T14:42:40.802Z,101023.97
2023-04-09T14:45:10.391Z,101024.53
2023-04-09T14:47:38.860Z,101025.66
2023-04-09T14:50:08.299Z,100999.19
2023-04-09T14:52:38.193Z,101009.53
2023-04-09T14:55:12.180Z,101005.31
2023-04-09T14:57:42.737Z,101004.03
2023-04-09T15:00:13.804Z,101003.88
2023-04-09T15:02:42.554Z,100978.00
2023-04-09T15:05:12.132Z,101003.38
2023-04-09T15:07:40.637Z,100977.63
2023-04-09T15:10:10.592Z,100983.22
2023-04-09T15:12:41.865Z,100988.84
2023-04-09T15:15:11.223Z,100984.06
2023-04-09T15:17:39.617Z,100972.78
2023-04-09T15:20:09.400Z,100987.19
2023-04-09T15:22:37.727Z,100963.34
2023-04-09T15:25:07.314Z,100968.28
2023-04-09T15:27:35.985Z,100973.03
2023-04-09T15:30:07.654Z,100968.88
2023-04-09T15:32:36.250Z,100975.69
2023-04-09T15:35:05.006Z,100989.06
2023-04-09T15:37:33.638Z,100982.94
2023-04-09T15:40:02.078Z,100962.44
2023-04-09T15:42:30.473Z,100986.22
2023-04-09T15:44:58.874Z,100983.72
2023-04-09T15:47:29.268Z,100986.06
2023-04-09T15:49:59.729Z,100977.53
2023-04-09T15:52:28.186Z,100972.59
2023-04-09T15:54:56.527Z,100974.00
2023-04-09T15:57:24.929Z,100975.03
2023-04-09T15:59:54.046Z,100978.56
2023-04-09T16:02:24.102Z,100977.47
2023-04-09T16:04:55.658Z,100978.09
2023-04-09T16:07:24.060Z,100985.50
2023-04-09T16:09:52.387Z,100969.81
2023-04-09T16:12:20.785Z,100975.44
2023-04-09T16:14:49.268Z,100965.47
2023-04-09T16:17:17.849Z,100966.22
2023-04-09T16:19:46.444Z,100959.31
2023-04-09T16:22:16.703Z,100967.56
2023-04-09T16:24:45.275Z,100965.38
2023-04-09T16:27:14.535Z,100965.63
2023-04-09T16:29:42.978Z,100961.75
2023-04-09T16:32:11.472Z,100957.63
2023-04-09T16:34:39.822Z,100954.72
2023-04-09T16:37:08.579Z,100960.56
2023-04-09T16:39:38.318Z,100959.31
2023-04-09T16:42:07.138Z,100964.19
2023-04-09T16:44:35.773Z,100956.72
2023-04-09T16:47:04.120Z,100965.66
2023-04-09T16:49:32.604Z,100959.91
2023-04-09T16:52:00.983Z,100961.06
2023-04-09T16:54:29.314Z,100965.81
2023-04-09T16:56:59.147Z,100964.78
2023-04-09T16:59:27.510Z,100965.72
2023-04-09T17:01:56.188Z,100962.38
2023-04-09T17:04:24.619Z,100964.19
2023-04-09T17:06:53.091Z,100960.53
2023-04-09T17:09:21.432Z,100959.88
2023-04-09T17:11:52.925Z,100954.16
2023-04-09T17:14:22.866Z,100945.47
2023-04-09T17:16:52.987Z,100948.69
2023-04-09T17:19:21.708Z,100949.09
2023-04-09T17:21:50.057Z,100962.09
2023-04-09T17:24:18.698Z,100970.97
2023-04-09T17:26:47.071Z,100962.84
2023-04-09T17:29:16.685Z,100963.22
2023-04-09T17:31:46.474Z,100964.22
2023-04-09T17:34:16.394Z,100959.94
2023-04-09T17:36:47.053Z,100967.63
2023-04-09T17:39:15.505Z,100971.94
2023-04-09T17:41:43.887Z,100971.28
2023-04-09T17:44:12.279Z,100972.66
2023-04-09T17:46:40.641Z,100968.13
2023-04-09T17:49:10.686Z,100975.25
2023-04-09T17:51:39.371Z,100979.06
2023-04-09T17:54:07.814Z,100976.50
2023-04-09T17:56:39.025Z,100970.56
2023-04-09T17:59:07.738Z,100978.91
2023-04-09T18:01:36.299Z,100976.41
2023-04-09T18:04:05.184Z,100972.84
2023-04-09T18:06:35.137Z,100982.56
2023-04-09T18:09:03.518Z,100987.75
2023-04-09T18:11:31.990Z,100987.41
2023-04-09T18:14:00.560Z,100983.81
2023-04-09T18:16:29.074Z,100984.28
2023-04-09T18:18:57.548Z,100987.13
2023-04-09T18:21:27.059Z,100983.38
2023-04-09T18:23:56.893Z,100979.88
2023-04-09T18:26:25.563Z,100993.91
2023-04-09T18:28:54.263Z,100996.25
2023-04-09T18:31:23.183Z,100995.31
2023-04-09T18:33:52.412Z,100983.19
2023-04-09T18:36:20.727Z,100970.75
2023-04-09T18:38:49.130Z,101007.00
2023-04-09T18:41:24.779Z,100992.13
2023-04-09T18:43:53.402Z,101006.09
2023-04-09T18:46:22.894Z,101005.16
2023-04-09T18:48:51.752Z,101009.38
2023-04-09T18:51:20.986Z,101009.81
2023-04-09T18:53:52.920Z,101005.69
2023-04-09T18:56:22.979Z,101020.28
2023-04-09T18:58:52.455Z,101009.75
2023-04-09T19:01:21.213Z,101012.59
2023-04-09T19:03:49.925Z,101016.41
2023-04-09T19:06:19.643Z,101003.34
2023-04-09T19:08:50.081Z,101012.31
2023-04-09T19:11:18.424Z,101020.44
2023-04-09T19:13:48.165Z,101017.63
2023-04-09T19:16:17.076Z,101007.59
2023-04-09T19:18:45.770Z,101012.75
2023-04-09T19:21:14.208Z,101004.91
2023-04-09T19:23:43.100Z,101019.94
2023-04-09T19:26:12.120Z,101022.13
2023-04-09T19:28:40.528Z,101020.31
2023-04-09T19:31:12.693Z,101012.59
2023-04-09T19:33:41.179Z,101008.69
2023-04-09T19:36:09.555Z,101013.13
2023-04-09T19:38:37.990Z,101005.09
2023-04-09T19:41:06.826Z,101012.72
2023-04-09T19:43:36.850Z,101013.88
2023-04-09T19:46:08.444Z,100978.16
2023-04-09T19:48:40.606Z,101020.84
2023-04-09T19:51:09.013Z,101017.22
2023-04-09T19:53:37.856Z,101015.22
2023-04-09T19:56:07.213Z,101013.09
2023-04-09T19:58:35.916Z,101000.59
2023-04-09T20:01:04.293Z,101010.31
2023-04-09T20:03:33.512Z,101013.63
2023-04-09T20:06:08.562Z,101012.84
2023-04-09T20:08:37.865Z,101015.00
2023-04-09T20:11:07.949Z,101015.81
2023-04-09T20:13:36.257Z,101017.34
2023-04-09T20:16:05.521Z,101017.50
2023-04-09T20:18:33.997Z,101000.03
2023-04-09T20:21:03.737Z,101009.63
2023-04-09T20:23:32.072Z,101008.66
2023-04-09T20:26:00.886Z,101008.84
2023-04-09T20:28:29.715Z,101005.22
2023-04-09T20:30:58.131Z,101011.66
2023-04-09T20:33:26.567Z,101002.75
2023-04-09T20:35:55.055Z,101005.59
2023-04-09T20:38:25.227Z,101011.03
2023-04-09T20:40:53.689Z,100991.75
2023-04-09T20:43:22.319Z,100986.34
2023-04-09T20:45:50.671Z,101017.28
2023-04-09T20:48:19.828Z,101014.50
2023-04-09T20:50:48.160Z,101007.75
2023-04-09T20:53:17.931Z,100989.28
2023-04-09T20:55:47.674Z,100961.56
2023-04-09T20:58:15.996Z,100973.78
2023-04-09T21:00:44.324Z,100996.03
2023-04-09T21:03:12.883Z,101014.50
2023-04-09T21:05:41.399Z,101018.47
2023-04-09T21:08:14.637Z,101016.97
2023-04-09T21:10:43.102Z,101013.66
2023-04-09T21:13:12.826Z,100895.13
2023-04-09T21:15:41.207Z,101026.69
2023-04-09T21:18:09.582Z,101015.63
2023-04-09T21:20:37.991Z,101014.31
2023-04-09T21:23:06.346Z,101013.31
2023-04-09T21:25:34.834Z,101018.28
2023-04-09T21:28:03.370Z,101012.97
2023-04-09T21:30:33.661Z,101017.59
2023-04-09T21:33:04.180Z,101003.75
2023-04-09T21:35:32.770Z,100995.47
2023-04-09T21:38:02.892Z,101003.84
2023-04-09T21:40:31.786Z,101006.00
2023-04-09T21:43:00.151Z,101006.81
2023-04-09T21:45:28.472Z,101005.47
2023-04-09T21:47:58.155Z,101014.56
2023-04-09T21:50:26.553Z,101002.84
2023-04-09T21:52:54.813Z,101002.66
2023-04-09T21:55:23.363Z,101002.66
2023-04-09T21:57:53.580Z,101006.09
2023-04-09T22:00:21.970Z,101009.84
2023-04-09T22:02:50.944Z,100982.00
2023-04-09T22:05:20.801Z,101010.50
2023-04-09T22:07:49.184Z,101007.69
2023-04-09T22:10:17.575Z,101015.22
2023-04-09T22:12:46.142Z,101018.34
2023-04-09T22:15:14.597Z,100970.84
2023-04-09T22:17:42.990Z,101006.28
2023-04-09T22:20:11.918Z,101007.31
2023-04-09T22:22:42.503Z,100984.38
2023-04-09T22:25:12.346Z,100999.81
2023-04-09T22:27:40.739Z,100967.09
2023-04-09T22:30:10.332Z,101016.19
2023-04-09T22:32:38.769Z,101011.47
2023-04-09T22:35:07.898Z,101012.59
2023-04-09T22:37:36.277Z,100986.59
2023-04-09T22:40:14.044Z,101016.72
2023-04-09T22:42:43.250Z,101004.34
2023-04-09T22:45:12.248Z,101000.88
2023-04-09T22:47:40.845Z,100999.06
2023-04-09T22:50:11.215Z,100983.69
2023-04-09T22:52:39.554Z,100994.69
2023-04-09T22:55:11.059Z,100995.53
2023-04-09T22:57:42.704Z,100992.31
2023-04-09T23:00:11.844Z,100967.78
2023-04-09T23:02:40.826Z,100995.91
2023-04-09T23:05:11.138Z,101000.00
2023-04-09T23:07:39.569Z,100997.66
2023-04-09T23:10:14.182Z,100999.88
2023-04-09T23:12:42.739Z,101005.13
2023-04-09T23:15:12.446Z,100990.03
2023-04-09T23:17:41.615Z,101011.28
2023-04-09T23:20:14.773Z,101001.22
2023-04-09T23:22:43.400Z,101012.59
2023-04-09T23:25:14.114Z,101006.94
2023-04-09T23:27:42.658Z,101005.22
2023-04-09T23:30:16.625Z,100969.97
2023-04-09T23:32:45.936Z,101003.47
2023-04-09T23:35:14.405Z,100998.69
2023-04-09T23:37:43.739Z,100997.69
2023-04-09T23:40:15.205Z,101000.09
2023-04-09T23:42:43.625Z,100999.53
2023-04-09T23:45:13.010Z,101000.13
2023-04-09T23:47:42.341Z,100991.06
2023-04-09T23:50:11.730Z,100917.56
2023-04-09T23:52:40.223Z,100978.13
2023-04-09T23:55:09.787Z,100997.88
2023-04-09T23:57:39.970Z,101001.63
